Terminal Aerodrome Forecast
Issued by NWS

Current Version | Previous Version | Text Only | Print | Product List | Glossary On
Versions: 1 2 3 4 5 6 7 8 9 10 11 12 13 14 15 16 17 18 19 20 21 22 23 24 25 26 27 28 29 30 31 32 33 34 35 36 37 38 39 40
000
FTUS46 KEKA 191700 AAA
TAFACV
TAF AMD
KACV 191742Z 1918/2012 19008KT P6SM SCT025 OVC035
     FM191900 20009KT 6SM -RA BKN025 OVC035
      TEMPO 1919/1921 SCT025 OVC035
     FM192100 31009KT P6SM VCSH BKN035 BKN080
     FM200100 36003KT P6SM SCT035 BKN250=

USA.gov is the U.S. government's official web portal to all federal, state and local government web resources and services.